createdAt,value
2019-04-30T00:01:48.565Z,8.90
2019-04-30T00:04:21.878Z,8.80
2019-04-30T00:06:49.578Z,8.80
2019-04-30T00:09:19.382Z,8.80
2019-04-30T00:11:50.577Z,8.80
2019-04-30T00:14:16.533Z,8.80
2019-04-30T00:16:45.131Z,8.80
2019-04-30T00:19:15.742Z,8.70
2019-04-30T00:21:42.290Z,8.70
2019-04-30T00:24:10.333Z,8.70
2019-04-30T00:26:39.862Z,8.60
2019-04-30T00:29:07.652Z,8.60
2019-04-30T00:31:35.323Z,8.60
2019-04-30T00:34:04.919Z,8.60
2019-04-30T00:36:34.061Z,8.60
2019-04-30T00:39:01.897Z,8.60
2019-04-30T00:41:30.340Z,8.50
2019-04-30T00:43:58.129Z,8.50
2019-04-30T00:46:29.302Z,8.50
2019-04-30T00:48:56.826Z,8.50
2019-04-30T00:51:26.156Z,8.40
2019-04-30T00:53:55.642Z,8.40
2019-04-30T00:56:26.459Z,8.30
2019-04-30T00:58:53.051Z,8.30
2019-04-30T01:01:44.301Z,8.30
2019-04-30T01:04:19.550Z,8.30
2019-04-30T01:06:47.491Z,8.30
2019-04-30T01:09:15.556Z,8.30
2019-04-30T01:11:44.765Z,8.30
2019-04-30T01:14:13.044Z,8.30
2019-04-30T01:16:40.686Z,8.30
2019-04-30T01:19:10.073Z,8.40
2019-04-30T01:21:40.207Z,8.40
2019-04-30T01:24:08.949Z,8.40
2019-04-30T01:26:39.266Z,8.40
2019-04-30T01:29:06.905Z,8.40
2019-04-30T01:31:37.323Z,8.40
2019-04-30T01:34:05.089Z,8.40
2019-04-30T01:36:33.495Z,8.40
2019-04-30T01:39:01.134Z,8.40
2019-04-30T01:41:31.440Z,8.40
2019-04-30T01:43:58.554Z,8.40
2019-04-30T01:46:26.287Z,8.40
2019-04-30T01:48:53.938Z,8.40
2019-04-30T01:51:21.931Z,8.30
2019-04-30T01:53:49.709Z,8.30
2019-04-30T01:56:25.470Z,8.30
2019-04-30T01:58:56.306Z,8.30
2019-04-30T02:01:25.257Z,8.30
2019-04-30T02:03:52.898Z,8.30
2019-04-30T02:06:20.534Z,8.30
2019-04-30T02:08:49.395Z,8.30
2019-04-30T02:11:18.819Z,8.20
2019-04-30T02:13:46.821Z,8.20
2019-04-30T02:16:14.460Z,8.20
2019-04-30T02:18:42.108Z,8.10
2019-04-30T02:21:11.433Z,8.10
2019-04-30T02:23:39.313Z,8.10
2019-04-30T02:26:08.555Z,8.10
2019-04-30T02:28:36.359Z,8.10
2019-04-30T02:31:04.357Z,8.10
2019-04-30T02:33:33.774Z,8.10
2019-04-30T02:36:29.478Z,8.10
2019-04-30T02:38:59.547Z,8.00
2019-04-30T02:41:29.260Z,8.00
2019-04-30T02:43:59.866Z,8.00
2019-04-30T02:46:31.964Z,8.00
2019-04-30T02:48:59.912Z,8.00
2019-04-30T02:51:31.001Z,8.00
2019-04-30T02:54:24.130Z,8.00
2019-04-30T02:57:07.625Z,7.90
2019-04-30T02:59:40.115Z,7.90
2019-04-30T03:02:11.494Z,7.90
2019-04-30T03:04:39.370Z,7.90
2019-04-30T03:07:05.842Z,7.80
2019-04-30T03:09:33.533Z,7.80
2019-04-30T03:12:01.154Z,7.80
2019-04-30T03:14:30.055Z,7.80
2019-04-30T03:17:10.227Z,7.80
2019-04-30T03:20:03.114Z,7.80
2019-04-30T03:22:30.112Z,7.80
2019-04-30T03:24:59.812Z,7.70
2019-04-30T03:27:29.992Z,7.70
2019-04-30T03:29:56.668Z,7.70
2019-04-30T03:32:24.319Z,7.70
2019-04-30T03:34:52.281Z,7.70
2019-04-30T03:37:20.009Z,7.60
2019-04-30T03:39:49.341Z,7.60
2019-04-30T03:42:19.683Z,7.50
2019-04-30T03:44:49.412Z,7.50
2019-04-30T03:47:16.021Z,7.50
2019-04-30T03:49:43.632Z,7.50
2019-04-30T03:52:13.266Z,7.50
2019-04-30T03:54:41.033Z,7.50
2019-04-30T03:57:10.756Z,7.40
2019-04-30T03:59:39.695Z,7.50
2019-04-30T04:02:26.158Z,7.50
2019-04-30T04:05:01.261Z,7.50
2019-04-30T04:08:09.424Z,7.50
2019-04-30T04:11:00.548Z,7.50
2019-04-30T04:13:29.986Z,7.50
2019-04-30T04:15:59.971Z,7.50
2019-04-30T04:18:30.063Z,7.50
2019-04-30T04:21:08.880Z,7.50
2019-04-30T04:23:26.060Z,7.50
2019-04-30T04:25:53.717Z,7.50
2019-04-30T04:28:21.401Z,7.50
2019-04-30T04:30:50.556Z,7.40
2019-04-30T04:33:19.934Z,7.40
2019-04-30T04:35:49.836Z,7.40
2019-04-30T04:38:20.092Z,7.30
2019-04-30T04:40:46.699Z,7.30
2019-04-30T04:43:14.489Z,7.30
2019-04-30T04:45:43.828Z,7.30
2019-04-30T04:48:11.544Z,7.30
2019-04-30T04:50:40.037Z,7.30
2019-04-30T04:53:10.826Z,7.30
2019-04-30T04:55:39.853Z,7.30
2019-04-30T04:58:09.631Z,7.40
2019-04-30T05:00:36.276Z,7.40
2019-04-30T05:03:27.295Z,7.40
2019-04-30T05:05:54.927Z,7.40
2019-04-30T05:08:22.608Z,7.50
2019-04-30T05:10:50.400Z,7.50
2019-04-30T05:13:19.222Z,7.50
2019-04-30T05:15:49.235Z,7.60
2019-04-30T05:18:16.490Z,7.60
2019-04-30T05:20:44.157Z,7.60
2019-04-30T05:23:11.771Z,7.60
2019-04-30T05:25:39.445Z,7.60
2019-04-30T05:28:08.727Z,7.60
2019-04-30T05:30:36.517Z,7.60
2019-04-30T05:33:04.217Z,7.60
2019-04-30T05:35:31.863Z,7.60
2019-04-30T05:37:59.498Z,7.60
2019-04-30T05:40:28.758Z,7.70
2019-04-30T05:42:56.603Z,7.70
2019-04-30T05:45:24.239Z,7.60
2019-04-30T05:47:51.895Z,7.60
2019-04-30T05:50:20.102Z,7.60
2019-04-30T05:52:49.274Z,7.70
2019-04-30T05:55:17.172Z,7.70
2019-04-30T05:57:53.926Z,7.70
2019-04-30T06:00:15.212Z,7.70
2019-04-30T06:02:42.881Z,7.70
2019-04-30T06:05:10.546Z,7.70
2019-04-30T06:07:39.509Z,7.80
2019-04-30T06:10:42.373Z,7.80
2019-04-30T06:13:14.161Z,7.80
2019-04-30T06:15:55.198Z,7.80
2019-04-30T06:18:22.940Z,7.90
2019-04-30T06:20:50.634Z,8.00
2019-04-30T06:23:19.511Z,8.00
2019-04-30T06:25:57.487Z,8.10
2019-04-30T06:28:19.657Z,8.20
2019-04-30T06:30:49.154Z,8.10
2019-04-30T06:33:18.912Z,8.20
2019-04-30T06:35:46.865Z,8.20
2019-04-30T06:38:14.521Z,8.20
2019-04-30T06:40:42.458Z,8.20
2019-04-30T06:43:10.630Z,8.30
2019-04-30T06:45:38.847Z,8.30
2019-04-30T06:48:08.730Z,8.40
2019-04-30T06:50:36.255Z,8.40
2019-04-30T06:53:03.925Z,8.50
2019-04-30T06:55:31.537Z,8.60
2019-04-30T06:58:11.450Z,8.80
2019-04-30T07:00:36.000Z,8.80
2019-04-30T07:03:04.323Z,8.80
2019-04-30T07:05:31.969Z,8.90
2019-04-30T07:08:19.024Z,8.90
2019-04-30T07:10:55.614Z,8.90
2019-04-30T07:13:23.485Z,9.00
2019-04-30T07:15:51.132Z,9.00
2019-04-30T07:18:19.026Z,9.20
2019-04-30T07:20:48.504Z,9.30
2019-04-30T07:23:16.321Z,9.30
2019-04-30T07:25:43.974Z,9.40
2019-04-30T07:28:11.570Z,9.50
2019-04-30T07:30:39.608Z,9.50
2019-04-30T07:33:09.380Z,9.60
2019-04-30T07:35:36.893Z,9.60
2019-04-30T07:38:04.996Z,9.60
2019-04-30T07:40:32.790Z,9.60
2019-04-30T07:43:00.922Z,9.60
2019-04-30T07:45:31.593Z,9.70
2019-04-30T07:47:59.342Z,9.80
2019-04-30T07:50:30.217Z,9.80
2019-04-30T07:53:02.548Z,9.90
2019-04-30T07:55:26.071Z,10.00
2019-04-30T07:57:53.713Z,10.00
2019-04-30T08:00:21.385Z,10.20
2019-04-30T08:02:59.715Z,10.40
2019-04-30T08:05:32.300Z,10.60
2019-04-30T08:08:16.711Z,10.80
2019-04-30T08:10:29.774Z,10.80
2019-04-30T08:13:08.660Z,10.80
2019-04-30T08:15:26.883Z,10.90
2019-04-30T08:18:05.014Z,11.00
2019-04-30T08:20:24.078Z,10.90
2019-04-30T08:22:51.737Z,11.00
2019-04-30T08:25:21.917Z,11.00
2019-04-30T08:27:49.389Z,11.00
2019-04-30T08:30:25.580Z,11.10
2019-04-30T08:32:46.694Z,11.00
2019-04-30T08:35:14.343Z,11.10
2019-04-30T08:37:41.962Z,11.20
2019-04-30T08:40:09.838Z,11.20
2019-04-30T08:42:39.777Z,11.30
2019-04-30T08:45:09.377Z,11.40
2019-04-30T08:47:36.766Z,11.40
2019-04-30T08:50:05.268Z,11.50
2019-04-30T08:52:32.953Z,11.60
2019-04-30T08:55:12.751Z,11.70
2019-04-30T08:57:30.072Z,11.70
2019-04-30T08:59:58.645Z,11.80
2019-04-30T09:02:26.431Z,11.90
2019-04-30T09:04:58.779Z,11.80
2019-04-30T09:07:26.500Z,11.80
2019-04-30T09:09:54.184Z,11.90
2019-04-30T09:12:21.831Z,12.00
2019-04-30T09:14:49.513Z,12.20
2019-04-30T09:17:19.237Z,12.10
2019-04-30T09:19:48.807Z,12.20
2019-04-30T09:22:16.118Z,12.30
2019-04-30T09:24:43.718Z,12.40
2019-04-30T09:27:11.347Z,12.50
2019-04-30T09:29:39.206Z,12.80
2019-04-30T09:32:06.910Z,13.20
2019-04-30T09:34:34.557Z,13.60
2019-04-30T09:37:02.189Z,14.20
2019-04-30T09:39:29.862Z,14.50
2019-04-30T09:41:59.461Z,14.90
2019-04-30T09:44:30.573Z,15.20
2019-04-30T09:47:15.823Z,15.60
2019-04-30T09:49:43.498Z,15.90
2019-04-30T09:52:11.330Z,16.20
2019-04-30T09:54:39.769Z,16.20
2019-04-30T09:57:09.124Z,16.40
2019-04-30T09:59:38.783Z,16.80
2019-04-30T10:02:09.152Z,17.00
2019-04-30T10:04:36.530Z,17.00
2019-04-30T10:07:04.543Z,17.20
2019-04-30T10:09:32.170Z,17.30
2019-04-30T10:12:06.330Z,17.30
2019-04-30T10:14:33.930Z,17.10
2019-04-30T10:17:09.323Z,17.20
2019-04-30T10:19:36.662Z,17.40
2019-04-30T10:22:04.610Z,17.60
2019-04-30T10:24:32.270Z,17.80
2019-04-30T10:27:00.196Z,18.10
2019-04-30T10:29:28.290Z,18.30
2019-04-30T10:31:55.931Z,18.30
2019-04-30T10:34:23.734Z,18.20
2019-04-30T10:36:51.409Z,18.20
2019-04-30T10:39:21.725Z,18.30
2019-04-30T10:41:48.740Z,18.40
2019-04-30T10:44:16.357Z,18.40
2019-04-30T10:46:44.119Z,18.30
2019-04-30T10:49:12.092Z,18.40
2019-04-30T10:51:39.714Z,18.40
2019-04-30T10:54:08.817Z,18.40
2019-04-30T10:56:36.708Z,18.40
2019-04-30T10:59:05.063Z,18.20
2019-04-30T11:01:32.951Z,18.20
2019-04-30T11:04:00.562Z,18.10
2019-04-30T11:06:28.229Z,18.20
2019-04-30T11:08:55.896Z,18.20
2019-04-30T11:11:23.574Z,18.30
2019-04-30T11:13:51.343Z,18.40
2019-04-30T11:16:18.979Z,18.60
2019-04-30T11:18:46.744Z,18.90
2019-04-30T11:21:14.727Z,19.30
2019-04-30T11:23:42.745Z,19.40
2019-04-30T11:26:10.784Z,19.10
2019-04-30T11:28:38.888Z,19.00
2019-04-30T11:31:25.192Z,18.90
2019-04-30T11:33:53.946Z,19.00
2019-04-30T11:36:21.572Z,19.10
2019-04-30T11:38:49.187Z,19.10
2019-04-30T11:41:29.538Z,19.30
2019-04-30T11:43:46.283Z,19.30
2019-04-30T11:46:51.739Z,19.10
2019-04-30T11:49:19.355Z,18.90
2019-04-30T11:51:47.019Z,18.80
2019-04-30T11:54:14.659Z,18.90
2019-04-30T11:56:42.409Z,18.90
2019-04-30T11:59:10.035Z,19.10
2019-04-30T12:01:38.507Z,19.20
2019-04-30T12:04:06.157Z,19.20
2019-04-30T12:06:33.844Z,19.20
2019-04-30T12:09:23.618Z,19.30
2019-04-30T12:11:51.249Z,19.40
2019-04-30T12:14:20.265Z,19.40
2019-04-30T12:16:48.071Z,19.50
2019-04-30T12:19:15.931Z,19.50
2019-04-30T12:21:43.561Z,19.30
2019-04-30T12:24:11.457Z,19.10
2019-04-30T12:26:39.155Z,19.00
2019-04-30T12:29:06.855Z,19.20
2019-04-30T12:31:34.476Z,19.20
2019-04-30T12:34:02.127Z,19.30
2019-04-30T12:36:29.796Z,19.20
2019-04-30T12:38:57.504Z,19.20
2019-04-30T12:41:25.147Z,19.10
2019-04-30T12:43:52.886Z,19.20
2019-04-30T12:46:21.265Z,19.20
2019-04-30T12:48:59.059Z,19.20
2019-04-30T12:52:04.459Z,19.20
2019-04-30T12:54:54.579Z,19.10
2019-04-30T12:57:39.087Z,19.20
2019-04-30T13:00:09.645Z,19.30
2019-04-30T13:02:37.510Z,19.30
2019-04-30T13:05:08.675Z,19.20
2019-04-30T13:07:36.496Z,19.40
2019-04-30T13:10:06.324Z,19.40
2019-04-30T13:12:34.984Z,19.40
2019-04-30T13:15:03.964Z,19.50
2019-04-30T13:17:31.711Z,19.50
2019-04-30T13:19:59.384Z,19.60
2019-04-30T13:22:28.878Z,19.80
2019-04-30T13:24:56.567Z,19.80
2019-04-30T13:27:24.226Z,19.70
2019-04-30T13:30:08.490Z,19.60
2019-04-30T13:32:43.258Z,19.60
2019-04-30T13:35:11.023Z,19.50
2019-04-30T13:37:44.556Z,19.30
2019-04-30T13:40:34.583Z,19.40
2019-04-30T13:43:02.381Z,19.50
2019-04-30T13:45:30.039Z,19.50
2019-04-30T13:47:58.862Z,19.60
2019-04-30T13:50:26.658Z,19.70
2019-04-30T13:52:54.317Z,19.70
2019-04-30T13:55:21.970Z,19.70
2019-04-30T13:57:49.585Z,19.60
2019-04-30T14:00:22.182Z,19.50
2019-04-30T14:02:56.181Z,19.40
2019-04-30T14:05:23.944Z,19.30
2019-04-30T14:08:11.023Z,19.30
2019-04-30T14:10:42.553Z,19.30
2019-04-30T14:13:10.678Z,19.30
2019-04-30T14:15:38.614Z,19.30
2019-04-30T14:18:06.357Z,19.40
2019-04-30T14:20:34.192Z,19.20
2019-04-30T14:23:01.812Z,19.10
2019-04-30T14:25:29.595Z,19.00
2019-04-30T14:27:59.182Z,19.00
2019-04-30T14:30:29.125Z,19.10
2019-04-30T14:32:56.547Z,19.10
2019-04-30T14:35:24.191Z,19.10
2019-04-30T14:37:51.821Z,19.10
2019-04-30T14:40:20.447Z,19.20
2019-04-30T14:43:07.403Z,19.30
2019-04-30T14:45:44.827Z,19.30
2019-04-30T14:48:23.680Z,19.30
2019-04-30T14:50:50.659Z,19.30
2019-04-30T14:53:40.419Z,19.20
2019-04-30T14:56:19.777Z,19.20
2019-04-30T14:59:12.717Z,19.30
2019-04-30T15:01:45.084Z,19.30
2019-04-30T15:04:12.735Z,19.30
2019-04-30T15:06:40.376Z,19.40
2019-04-30T15:09:08.279Z,19.40
2019-04-30T15:11:35.897Z,19.40
2019-04-30T15:14:03.850Z,19.30
2019-04-30T15:16:31.489Z,19.10
2019-04-30T15:18:59.136Z,19.00
2019-04-30T15:21:26.768Z,19.00
2019-04-30T15:24:16.742Z,19.10
2019-04-30T15:26:44.373Z,19.20
2019-04-30T15:29:14.365Z,19.30
2019-04-30T15:31:42.682Z,19.00
2019-04-30T15:34:12.295Z,18.70
2019-04-30T15:36:40.073Z,18.50
2019-04-30T15:39:30.653Z,18.20
2019-04-30T15:41:57.005Z,18.20
2019-04-30T15:44:24.646Z,18.20
2019-04-30T15:46:52.392Z,18.30
2019-04-30T15:49:20.045Z,18.10
2019-04-30T15:51:47.725Z,18.00
2019-04-30T15:54:15.365Z,18.00
2019-04-30T15:56:43.889Z,18.10
2019-04-30T15:59:18.978Z,18.00
2019-04-30T16:01:49.773Z,17.90
2019-04-30T16:04:20.323Z,17.90
2019-04-30T16:06:49.125Z,17.90
2019-04-30T16:09:23.619Z,17.90
2019-04-30T16:12:10.783Z,17.90
2019-04-30T16:14:57.861Z,17.80
2019-04-30T16:17:26.001Z,17.80
2019-04-30T16:19:53.681Z,17.70
2019-04-30T16:22:21.406Z,17.70
2019-04-30T16:24:49.522Z,17.70
2019-04-30T16:27:19.022Z,17.70
2019-04-30T16:29:46.679Z,17.70
2019-04-30T16:32:14.921Z,17.70
2019-04-30T16:34:42.594Z,17.70
2019-04-30T16:37:10.245Z,17.70
2019-04-30T16:39:39.696Z,17.70
2019-04-30T16:42:09.119Z,17.70
2019-04-30T16:44:37.007Z,17.60
2019-04-30T16:47:13.410Z,17.50
2019-04-30T16:49:34.109Z,17.50
2019-04-30T16:52:01.866Z,17.50
2019-04-30T16:54:29.556Z,17.50
2019-04-30T16:57:04.310Z,17.40
2019-04-30T16:59:46.340Z,17.40
2019-04-30T17:02:21.552Z,17.40
2019-04-30T17:05:00.216Z,17.30
2019-04-30T17:07:42.062Z,17.30
2019-04-30T17:10:29.418Z,17.30
2019-04-30T17:13:09.251Z,17.20
2019-04-30T17:15:37.434Z,17.20
2019-04-30T17:18:05.116Z,17.20
2019-04-30T17:20:32.823Z,17.10
2019-04-30T17:23:00.658Z,17.00
2019-04-30T17:25:28.255Z,16.90
2019-04-30T17:27:56.241Z,16.80
2019-04-30T17:30:24.058Z,16.80
2019-04-30T17:32:51.856Z,16.70
2019-04-30T17:35:19.786Z,16.70
2019-04-30T17:37:47.507Z,16.60
2019-04-30T17:40:19.083Z,16.50
2019-04-30T17:42:46.431Z,16.40
2019-04-30T17:45:16.662Z,16.40
2019-04-30T17:47:44.538Z,16.30
2019-04-30T17:50:12.474Z,16.20
2019-04-30T17:52:40.235Z,16.20
2019-04-30T17:55:09.727Z,16.10
2019-04-30T17:57:40.043Z,16.00
2019-04-30T18:00:16.958Z,15.90
2019-04-30T18:02:39.274Z,15.90
2019-04-30T18:05:09.116Z,15.80
2019-04-30T18:07:37.178Z,15.70
2019-04-30T18:10:08.674Z,15.70
2019-04-30T18:12:36.500Z,15.60
2019-04-30T18:15:06.333Z,15.60
2019-04-30T18:17:33.970Z,15.50
2019-04-30T18:20:10.946Z,15.50
2019-04-30T18:23:16.260Z,15.40
2019-04-30T18:25:53.955Z,15.40
2019-04-30T18:28:21.610Z,15.20
2019-04-30T18:30:49.267Z,15.20
2019-04-30T18:33:16.930Z,15.10
2019-04-30T18:35:44.626Z,15.00
2019-04-30T18:38:12.243Z,14.90
2019-04-30T18:40:40.014Z,14.90
2019-04-30T18:43:07.644Z,14.80
2019-04-30T18:45:35.300Z,14.80
2019-04-30T18:48:03.033Z,14.70
2019-04-30T18:50:30.712Z,14.60
2019-04-30T18:53:00.250Z,14.60
2019-04-30T18:55:27.907Z,14.50
2019-04-30T18:57:56.898Z,14.40
2019-04-30T19:00:39.583Z,14.30
2019-04-30T19:03:08.666Z,14.30
2019-04-30T19:05:39.148Z,14.20
2019-04-30T19:08:25.157Z,14.10
2019-04-30T19:11:18.753Z,14.10
2019-04-30T19:14:19.321Z,14.00
2019-04-30T19:17:09.605Z,14.00
2019-04-30T19:19:45.960Z,13.90
2019-04-30T19:22:13.630Z,13.90
2019-04-30T19:24:53.483Z,13.90
2019-04-30T19:27:11.416Z,13.80
2019-04-30T19:29:39.061Z,13.80
2019-04-30T19:32:06.854Z,13.80
2019-04-30T19:34:34.503Z,13.80
2019-04-30T19:37:02.161Z,13.70
2019-04-30T19:39:32.377Z,13.70
2019-04-30T19:42:01.042Z,13.70
2019-04-30T19:44:29.377Z,13.70
2019-04-30T19:46:58.576Z,13.70
2019-04-30T19:49:26.354Z,13.70
2019-04-30T19:52:07.593Z,13.70
2019-04-30T19:54:23.431Z,13.60
2019-04-30T19:56:51.054Z,13.60
2019-04-30T19:59:19.344Z,13.60
2019-04-30T20:01:48.801Z,13.50
2019-04-30T20:04:18.467Z,13.50
2019-04-30T20:06:46.041Z,13.50
2019-04-30T20:09:13.710Z,13.50
2019-04-30T20:11:42.676Z,13.40
2019-04-30T20:14:10.680Z,13.40
2019-04-30T20:16:40.144Z,13.30
2019-04-30T20:19:09.202Z,13.30
2019-04-30T20:21:48.112Z,13.20
2019-04-30T20:24:06.370Z,13.20
2019-04-30T20:26:34.049Z,13.10
2019-04-30T20:29:01.706Z,13.10
2019-04-30T20:31:29.350Z,13.10
2019-04-30T20:33:59.097Z,13.10
2019-04-30T20:36:26.497Z,13.10
2019-04-30T20:39:02.508Z,13.00
2019-04-30T20:41:31.090Z,13.00
2019-04-30T20:43:58.737Z,13.00
2019-04-30T20:46:32.648Z,12.90
2019-04-30T20:48:59.195Z,12.90
2019-04-30T20:51:26.566Z,12.90
2019-04-30T20:53:54.250Z,12.80
2019-04-30T20:56:21.908Z,12.80
2019-04-30T20:58:57.410Z,12.70
2019-04-30T21:01:19.430Z,12.60
2019-04-30T21:03:47.172Z,12.60
2019-04-30T21:06:14.854Z,12.50
2019-04-30T21:08:42.508Z,12.40
2019-04-30T21:11:10.125Z,12.40
2019-04-30T21:13:39.214Z,12.30
2019-04-30T21:16:07.032Z,12.30
2019-04-30T21:18:34.700Z,12.20
2019-04-30T21:21:02.306Z,12.20
2019-04-30T21:23:30.004Z,12.10
2019-04-30T21:25:58.978Z,12.00
2019-04-30T21:28:26.799Z,11.90
2019-04-30T21:30:54.459Z,11.80
2019-04-30T21:33:32.123Z,11.80
2019-04-30T21:36:19.220Z,11.70
2019-04-30T21:38:48.926Z,11.60
2019-04-30T21:41:16.396Z,11.50
2019-04-30T21:43:44.017Z,11.40
2019-04-30T21:46:11.657Z,11.30
2019-04-30T21:48:39.290Z,11.20
2019-04-30T21:51:06.976Z,11.10
2019-04-30T21:53:34.614Z,11.10
2019-04-30T21:56:02.300Z,11.00
2019-04-30T21:58:29.951Z,10.90
2019-04-30T22:01:25.543Z,10.90
2019-04-30T22:03:53.500Z,10.80
2019-04-30T22:06:21.202Z,10.70
2019-04-30T22:08:48.831Z,10.60
2019-04-30T22:11:16.506Z,10.60
2019-04-30T22:13:44.143Z,10.50
2019-04-30T22:16:11.808Z,10.50
2019-04-30T22:18:39.475Z,10.50
2019-04-30T22:21:07.090Z,10.40
2019-04-30T22:23:34.758Z,10.40
2019-04-30T22:26:02.409Z,10.40
2019-04-30T22:28:30.100Z,10.30
2019-04-30T22:30:58.585Z,10.30
2019-04-30T22:33:26.310Z,10.30
2019-04-30T22:36:10.931Z,10.30
2019-04-30T22:38:44.695Z,10.30
2019-04-30T22:41:12.339Z,10.30
2019-04-30T22:43:40.004Z,10.20
2019-04-30T22:46:11.770Z,10.20
2019-04-30T22:48:39.452Z,10.20
2019-04-30T22:51:07.073Z,10.10
2019-04-30T22:53:34.735Z,10.10
2019-04-30T22:56:02.335Z,10.10
2019-04-30T22:58:29.960Z,10.00
2019-04-30T23:01:18.292Z,10.00
2019-04-30T23:03:46.005Z,10.00
2019-04-30T23:06:13.622Z,10.00
2019-04-30T23:08:41.276Z,10.00
2019-04-30T23:11:08.956Z,10.00
2019-04-30T23:13:36.599Z,10.00
2019-04-30T23:16:04.557Z,10.00
2019-04-30T23:18:32.359Z,10.00
2019-04-30T23:21:00.076Z,9.90
2019-04-30T23:23:27.709Z,9.90
2019-04-30T23:25:55.371Z,9.90
2019-04-30T23:28:22.994Z,9.90
2019-04-30T23:30:50.669Z,9.80
2019-04-30T23:33:18.336Z,9.80
2019-04-30T23:35:45.968Z,9.80
2019-04-30T23:38:13.627Z,9.80
2019-04-30T23:40:47.483Z,9.70
2019-04-30T23:43:15.121Z,9.70
2019-04-30T23:45:43.882Z,9.70
2019-04-30T23:48:11.508Z,9.70
2019-04-30T23:50:39.215Z,9.60
2019-04-30T23:53:06.852Z,9.60
2019-04-30T23:55:34.468Z,9.60
2019-04-30T23:58:02.139Z,9.60
